Skip Navigation Links Skip Navigation Links

Current Weather

William M Tuck, South Boston, Va.

For information only: do not use for flight planning or navigation.
Latest weather
Observation time Wednesday, February 20, 2019 12:55 PM EST
Local time Wednesday, February 20, 2019 1:20 PM EST
Flight conditions Instrument Meteorological Conditions
Winds
Wind direction Northeast (40°)
Wind speed 5 mph
Visibility 2 mi.
Sky condition
Ceiling 500 ft. overcast
Cloud layer overcast 500 ft.
Temperature 33°F
Dewpoint 32°F
Altimeter 30.34 in.Hg
Precipitation
Precipitation last hour 0.02 in.
Precipitation last 3 hours 0.11 in.
Derived measurements
Relative humidity 95%
Wind chill 29°F
Density altitude -1702 ft.
Climate data
Remarks
Fully automated report.
Automated weather observing station without precipitation discriminator.
METAR KW78 201755Z AUTO 04004KT 2SM OVC005 01/00 A3034 RMK AO1 P0002 60011 T00080001 10008 20000

Settings

Location code

InnerDrive.Weather 4.0.6770.0 Release CLR 4.0.30319.42000
Copyright ©2018 Inner Drive Technology. All rights reserved. Portions Copyright ©1986-2018 David Braverman.

Find weather

Site navigation


Skip Navigation Links

Place info

Page info

PayPal - The safer, easier way to pay online!

Return home.

Copyright ©2019 Inner Drive Technology. Purveyors of fine, hand-crafted computer software. Page printed 2019-02-20T18:20:20 UTC.